Station: Samuel Hill  

  Atmospheric Gas Attenuation - ITU Rec 676-11   ----------------- dB/100km -----------------
Date Time Temp RH % AH g/m3 Dew Point Wind Direction Speed kph Gust kph Barometer mB Rainfall Since 9am 24GHz 47GHz 76GHz 122GHz 134GHz 241GHz
08/05 12:40 23.4 33 6.94 6.2 13 17 1018.1 0 15.7 21.1 29.8 77.9 68.7 235.6
08/05 12:30 22.9 32 6.54 5.3 17 22 1018.1 0 14.9 20.7 28.7 74.8 64.8 221.6
08/05 12:20 22.8 32 6.5 5.3 17 20 1018.5 0 14.8 20.7 28.6 74.6 64.4 220.4
08/05 12:10 22.6 31 6.23 4.6 20 24 1018.6 0 14.2 20.4 27.8 72.4 61.7 210.7
08/05 12:00 22.5 34 6.79 5.9 17 24 1018.6 0 15.4 21.2 29.7 77.5 67.9 232.4
08/05 11:50 22.5 35 6.99 6.3 19 24 1018.9 0 15.8 21.4 30.4 79.3 70.1 240.3
08/05 11:40 22.1 37 7.22 6.7 19 20 1018.9 0 16.3 21.9 31.3 81.8 73.0 250.5
08/05 11:30 22.4 37 7.35 7 15 24 1018.8 0 16.6 22.0 31.6 82.6 74.2 254.7
08/05 11:20 21.3 35 6.52 5.2 15 19 1019.2 0 14.9 21.1 29.2 76.2 65.9 225.4
08/05 11:10 21.7 40 7.63 7.5 13 17 1019.4 0 17.2 22.5 32.9 86.0 78.1 268.3
08/05 11:00 21.3 37 6.9 6 17 24 1019.5 0 15.7 21.6 30.5 79.7 70.2 240.4
08/05 10:50 21.6 39 7.4 7.1 13 19 1019.7 0 16.7 22.3 32.1 84.0 75.6 259.4
08/05 10:40 21.3 40 7.46 7.2 15 19 1019.8 0 16.8 22.4 32.5 84.9 76.6 262.8
08/05 10:30 21.2 41 7.6 7.4 13 19 1019.8 0 17.1 22.6 33.0 86.3 78.3 268.8
08/05 10:20 20.8 42 7.6 7.4 15 19 1019.9 0 17.2 22.7 33.2 86.7 78.7 270.1
08/05 10:10 20.6 42 7.52 7.2 19 26 1020.1 0 17.0 22.7 33.0 86.2 77.9 267.6
08/05 10:00 20.7 44 7.92 8 17 24 1020.1 0 17.8 23.2 34.3 89.9 82.5 283.7
08/05 09:50 20.3 43 7.56 7.3 17 20 1020.1 0 17.1 22.8 33.2 86.9 78.7 270.2
08/05 09:40 20.4 46 8.14 8.4 13 15 1020.1 0 18.3 23.6 35.3 92.3 85.5 293.9
08/05 09:30 19.7 45 7.64 7.4 17 24 1020 0 17.3 23.1 33.7 88.3 80.2 275.5
08/05 09:20 19.8 49 8.37 8.8 15 19 1020 0 18.8 24.1 36.4 95.3 88.9 305.8
08/05 09:10 19.4 48 8.01 8.1 15 20 1020.1 0 18.1 23.7 35.2 92.2 85.0 292.1
08/05 09:00 19.4 48 8.01 8.1 13 22 1020.1 0 18.1 23.7 35.2 92.2 85.0 292.1
08/05 08:50 19.2 49 8.08 8.2 13 20 1020.1 0.2 18.2 23.8 35.6 93.1 86.0 295.7
08/05 08:40 19 51 8.31 8.6 15 19 1020 0.2 18.7 24.2 36.5 95.6 89.0 306.3
08/05 08:30 19.1 50 8.2 8.4 7 13 1019.9 0.2 18.5 24.0 36.0 94.4 87.6 301.2
08/05 08:20 18.4 55 8.65 9.2 9 13 1019.9 0.2 19.5 24.9 38.0 99.7 93.9 323.3
08/05 08:10 17.8 58 8.8 9.4 6 7 1019.9 0.2 19.8 25.3 38.9 102.0 96.5 332.4
08/05 08:00 17.4 60 8.89 9.6 11 13 1019.8 0.2 20.0 25.6 39.4 103.5 98.2 338.1
08/05 07:50 17.2 63 9.23 10.1 9 11 1019.7 0.2 20.8 26.2 40.9 107.3 102.8 354.2
08/05 07:40 16.8 61 8.72 9.2 15 17 1019.6 0.2 19.7 25.5 39.1 102.5 96.7 332.9
08/05 07:30 16.7 67 9.52 10.5 2 6 1019.6 0.2 21.4 26.8 42.3 111.0 107.2 369.7
08/05 07:20 16.4 72 10.05 11.3 0 0 1019.5 0.2 22.5 27.7 44.6 117.2 114.7 395.8
08/05 07:10 16 70 9.54 10.5 0 0 1019.5 0.2 21.5 27.0 42.7 112.2 108.5 373.9
08/05 07:00 15 76 9.75 10.8 0 0 1019.3 0.2 22.0 27.7 44.1 115.9 112.7 388.6
08/05 06:50 14.3 91 11.18 12.9 0 0 1019.3 0.2 25.1 30.3 50.6 133.3 133.8 462.4
08/05 06:40 14.3 95 11.67 13.5 0 0 1019.1 0.2 26.1 31.2 52.8 139.1 140.9 487.2
08/05 06:30 14.1 95 11.53 13.3 2 7 1018.8 0.2 25.8 31.0 52.3 137.7 139.2 481.2
08/05 06:20 13.6 95 11.18 12.8 2 4 1018.7 0.2 25.1 30.6 51.1 134.5 135.0 466.4
08/05 06:10 13.7 93 11.01 12.6 0 0 1018.5 0.2 24.8 30.2 50.2 132.3 132.4 457.2
08/05 06:00 13.8 92 10.96 12.5 0 6 1018.5 0.2 24.6 30.1 50.0 131.5 131.5 454.0
08/05 05:50 13.6 92 10.83 12.3 0 0 1018.4 0.2 24.4 29.9 49.5 130.3 129.9 448.6
08/05 05:40 13.8 94 11.2 12.9 0 0 1018.2 0.2 25.2 30.5 51.0 134.3 134.9 466.0
08/05 05:30 14.2 92 11.23 12.9 0 0 1017.9 0.2 25.2 30.4 50.9 133.9 134.6 465.0
08/05 05:20 14.2 91 11.11 12.8 0 0 1017.8 0.2 24.9 30.2 50.3 132.5 132.9 459.0
08/05 05:10 14.5 90 11.19 12.9 0 0 1017.6 0.2 25.1 30.2 50.5 132.9 133.5 461.1
08/05 05:00 14.8 91 11.53 13.3 0 7 1017.4 0.2 25.8 30.7 51.8 136.3 137.8 476.3
08/05 04:50 15.1 87 11.22 13 2 6 1017.3 0.2 25.1 30.0 50.2 132.2 132.8 458.9
08/05 04:40 15.2 89 11.55 13.4 0 6 1017.3 0.2 25.8 30.6 51.6 135.8 137.4 474.8
08/05 04:30 15.4 87 11.43 13.2 2 9 1017.1 0.2 25.6 30.3 50.9 134.0 135.3 467.5
08/05 04:20 15.5 83 10.97 12.6 6 7 1016.9 0.2 24.6 29.5 48.8 128.6 128.5 444.1
08/05 04:10 15.9 82 11.1 12.8 0 0 1016.9 0.2 24.8 29.5 49.2 129.4 129.7 448.2
08/05 04:00 16.4 74 10.33 11.8 7 9 1016.7 0.2 23.1 28.1 45.6 119.9 118.2 408.2
08/05 03:50 16.4 77 10.75 12.4 9 11 1016.8 0.2 24.0 28.8 47.4 124.6 124.0 428.3
08/05 03:40 16.4 78 10.89 12.6 7 9 1016.7 0.2 24.3 29.0 47.9 126.2 125.9 435.0
08/05 03:30 16.3 80 11.1 12.8 7 11 1016.7 0.2 24.8 29.4 48.9 128.7 129.0 445.8
08/05 03:20 16.2 83 11.45 13.3 7 9 1016.5 0.2 25.5 30.0 50.4 132.8 134.1 463.5
08/05 03:10 16.1 86 11.79 13.8 11 13 1016.5 0.2 26.3 30.7 52.0 136.9 139.1 480.9
08/05 03:00 15.5 95 12.56 14.7 6 9 1016.6 0.2 28.0 32.3 55.8 147.2 151.4 524.0
08/05 02:50 15.9 97 13.14 15.4 0 0 1016.5 0.2 29.2 33.2 58.2 153.4 159.2 551.3
08/05 02:40 16 97 13.22 15.5 0 0 1016.4 0.2 29.4 33.3 58.4 154.1 160.2 554.7
08/05 02:30 16.2 96 13.24 15.6 0 0 1016.4 0.2 29.4 33.2 58.4 154.0 160.1 554.3
08/05 02:20 16.4 96 13.4 15.8 0 0 1016.4 0.2 29.7 33.4 59.0 155.5 162.1 561.1
08/05 02:10 16.5 96 13.48 15.9 0 0 1016.5 0.2 29.9 33.6 59.3 156.3 163.1 564.6
08/05 02:00 16.7 96 13.64 16.1 0 0 1016.4 0.2 30.2 33.8 59.8 157.8 165.0 571.5
08/05 01:50 16.8 96 13.72 16.2 0 0 1016.4 0.2 30.4 33.9 60.1 158.6 166.0 574.9
08/05 01:40 17 96 13.89 16.4 0 0 1016.4 0.2 30.7 34.1 60.7 160.3 168.1 582.3
08/05 01:30 17.1 96 13.97 16.5 0 0 1016.4 0.2 30.9 34.2 61.0 161.0 169.1 585.7
08/05 01:20 17.2 96 14.06 16.6 0 0 1016.5 0.2 31.1 34.3 61.4 161.9 170.2 589.8
08/05 01:10 17.4 96 14.23 16.8 0 0 1016.4 0.2 31.4 34.6 62.0 163.6 172.3 597.1
08/05 01:00 17.5 96 14.31 16.9 0 7 1016.5 0.2 31.6 34.7 62.3 164.4 173.3 600.6
08/05 00:50 17.7 96 14.48 17.1 0 0 1016.6 0.2 31.9 34.9 62.9 166.1 175.5 608.0
08/05 00:40 17.6 96 14.4 17 0 0 1016.6 0.2 31.8 34.8 62.6 165.3 174.5 604.6
08/05 00:30 17.7 96 14.48 17.1 0 0 1016.6 0.2 31.9 34.9 62.9 166.1 175.5 608.0
08/05 00:20 17.8 95 14.42 17 0 0 1016.5 0.2 31.8 34.8 62.5 165.1 174.3 604.0
08/05 00:10 17.8 95 14.42 17 0 0 1016.6 0.2 31.8 34.8 62.6 165.1 174.3 604.1
08/05 00:00 18 94 14.44 17 0 0 1016.7 0.2 31.8 34.7 62.5 164.9 174.2 603.6
07/05 23:50 18.3 93 14.54 17.1 0 0 1016.6 0.2 32.0 34.8 62.7 165.5 175.0 606.4
07/05 23:40 18.4 91 14.31 16.9 4 6 1016.8 0.2 31.5 34.3 61.6 162.5 171.3 593.7
07/05 23:30 18.4 94 14.78 17.4 6 9 1016.7 0.2 32.5 35.2 63.7 168.2 178.4 618.3
07/05 23:20 18.7 95 15.21 17.9 0 0 1016.7 0.2 33.4 35.9 65.5 172.9 184.2 638.6
07/05 23:10 18.9 96 15.55 18.2 7 9 1016.8 0.2 34.1 36.4 66.9 176.7 188.9 655.2
07/05 23:00 19.1 96 15.74 18.4 0 4 1016.9 0.2 34.5 36.7 67.6 178.6 191.4 663.7
07/05 22:50 19.2 96 15.83 18.5 0 4 1016.9 0.2 34.7 36.8 68.0 179.5 192.5 667.6
07/05 22:40 19.4 97 16.18 18.9 0 0 1016.9 0.2 35.5 37.4 69.5 183.5 197.4 684.8
07/05 22:30 19.6 97 16.37 19.1 6 7 1017 0.2 35.8 37.7 70.2 185.4 199.9 693.3
07/05 22:20 19.5 97 16.28 19 6 7 1017.1 0.2 35.7 37.6 69.8 184.5 198.7 689.4
07/05 22:10 19.4 97 16.18 18.9 0 0 1017.1 0.2 35.5 37.4 69.5 183.5 197.5 684.9
07/05 22:00 19.6 97 16.37 19.1 0 0 1017 0.2 35.8 37.7 70.2 185.4 199.9 693.3
07/05 21:50 19.7 97 16.47 19.2 0 0 1017.1 0.2 36.1 37.8 70.6 186.5 201.2 697.9
07/05 21:40 19.7 97 16.47 19.2 0 0 1017 0.2 36.1 37.8 70.6 186.4 201.2 697.8
07/05 21:30 19.6 96 16.2 18.9 0 0 1017.1 0.2 35.5 37.4 69.4 183.3 197.2 684.1
07/05 21:20 19.6 96 16.2 18.9 0 0 1017 0.2 35.5 37.4 69.4 183.3 197.2 684.1
07/05 21:10 19.8 96 16.4 19.1 0 0 1017.3 0.2 35.9 37.7 70.2 185.4 199.8 693.2
07/05 21:00 20.2 96 16.78 19.5 0 0 1017.2 0.2 36.7 38.2 71.6 189.2 204.7 710.1
07/05 20:50 20.3 96 16.88 19.6 0 0 1017.1 0.2 36.9 38.4 72.0 190.2 206.0 714.6
07/05 20:40 20.4 95 16.8 19.6 6 7 1017 0.2 36.7 38.2 71.5 188.9 204.4 709.2
07/05 20:30 20.7 95 17.1 19.9 0 0 1017 0.2 37.3 38.6 72.6 192.0 208.3 722.7
07/05 20:20 21 95 17.4 20.2 0 0 1016.9 0.2 37.9 39.0 73.8 195.0 212.1 736.1
07/05 20:10 21 95 17.4 20.2 0 0 1016.8 0.2 37.9 39.0 73.8 195.0 212.1 736.1

Last Refresh: 08-May-2026 12:09:24

Bureau of Meteorology